Time;durP1;ratioP1;P1;durP2;ratioP2;P2;SDS_P1;SDS_P2;PMS_P1;PMS_P2;Temp;Humidity;BMP_temperature;BMP_pressure;BME280_temperature;BME280_humidity;BME280_pressure;Samples;Min_cycle;Max_cycle;Signal;HPM_P1;HPM_P2
2023/10/08 00:02:03;;;;;;;11.93;2.58;;;17.40;99.90;;;;;;4990203;28;20370;-88
2023/10/08 00:04:29;;;;;;;11.27;2.90;;;17.40;99.90;;;;;;4995456;28;20033;-88
2023/10/08 00:06:54;;;;;;;14.85;3.90;;;17.30;99.90;;;;;;4995296;28;20034;-89
2023/10/08 00:09:20;;;;;;;12.05;3.50;;;17.30;99.90;;;;;;4983152;28;20113;-88
2023/10/08 00:11:52;;;;;;;12.95;3.40;;;17.30;99.90;;;;;;4989811;28;20030;-87
2023/10/08 00:14:21;;;;;;;13.70;3.85;;;17.30;99.90;;;;;;4995154;28;20033;-88
2023/10/08 00:16:49;;;;;;;13.10;3.55;;;17.20;99.90;;;;;;4991945;28;20027;-88
2023/10/08 00:19:17;;;;;;;15.05;3.20;;;17.20;99.90;;;;;;4993986;28;20113;-88
2023/10/08 00:21:45;;;;;;;12.52;4.13;;;17.10;99.90;;;;;;4991518;28;20549;-88
2023/10/08 00:24:12;;;;;;;13.23;3.10;;;17.10;99.90;;;;;;4993217;28;20054;-88
2023/10/08 00:26:40;;;;;;;13.30;3.83;;;17.10;99.90;;;;;;4993805;28;20034;-88
2023/10/08 00:29:15;;;;;;;12.18;3.03;;;17.10;99.90;;;;;;4988202;28;20023;-88
2023/10/08 00:31:41;;;;;;;12.88;3.10;;;17.00;99.90;;;;;;4994325;28;20056;-88
2023/10/08 00:34:13;;;;;;;13.35;3.38;;;17.00;99.90;;;;;;4994034;28;20105;-88
2023/10/08 00:36:44;;;;;;;14.18;2.90;;;16.90;99.90;;;;;;4991929;28;20046;-88
2023/10/08 00:39:16;;;;;;;12.55;3.00;;;16.90;99.90;;;;;;4988062;28;20021;-88
2023/10/08 00:41:44;;;;;;;12.35;3.65;;;16.90;99.90;;;;;;5007413;28;20022;-88
2023/10/08 00:44:16;;;;;;;11.80;3.45;;;16.90;99.90;;;;;;4993257;28;20022;-88
2023/10/08 00:46:47;;;;;;;15.38;3.95;;;16.90;99.90;;;;;;4996587;28;20038;-89
2023/10/08 00:51:53;;;;;;;12.93;3.85;;;16.90;99.90;;;;;;5010917;28;20121;-88
2023/10/08 00:54:21;;;;;;;11.55;2.90;;;16.80;99.90;;;;;;4996237;28;20026;-88
2023/10/08 00:56:56;;;;;;;16.35;4.07;;;16.80;99.90;;;;;;4994987;28;20034;-88
2023/10/08 00:59:23;;;;;;;16.30;3.47;;;16.90;99.90;;;;;;4994102;28;20113;-88
2023/10/08 01:01:59;;;;;;;14.80;3.97;;;16.80;99.90;;;;;;4994407;28;20069;-88
2023/10/08 01:04:34;;;;;;;12.55;3.47;;;16.80;99.90;;;;;;4997002;28;20161;-88
2023/10/08 01:07:12;;;;;;;13.73;3.40;;;16.80;99.90;;;;;;4994617;28;20096;-89
2023/10/08 01:09:42;;;;;;;15.18;3.95;;;16.80;99.90;;;;;;4990444;28;20030;-88
2023/10/08 01:12:34;;;;;;;11.68;4.07;;;16.80;99.90;;;;;;4997103;28;20057;-88
2023/10/08 01:15:13;;;;;;;17.23;4.38;;;16.80;99.90;;;;;;4986836;28;20068;-88
2023/10/08 01:17:58;;;;;;;18.73;4.40;;;16.70;99.90;;;;;;4995919;28;20425;-88
2023/10/08 01:20:45;;;;;;;12.95;3.83;;;16.70;99.90;;;;;;4996328;28;20022;-89
2023/10/08 01:23:19;;;;;;;11.68;3.22;;;16.70;99.90;;;;;;4995611;28;20474;-89
2023/10/08 01:25:50;;;;;;;15.45;3.90;;;16.70;99.90;;;;;;4989911;28;20038;-88
2023/10/08 01:28:25;;;;;;;15.52;4.28;;;16.60;99.90;;;;;;4992104;28;20022;-88
2023/10/08 01:30:54;;;;;;;13.90;4.07;;;16.60;99.90;;;;;;4994147;28;20136;-88
2023/10/08 01:33:21;;;;;;;12.30;4.15;;;16.60;99.90;;;;;;5006338;28;20084;-88
2023/10/08 01:35:50;;;;;;;15.27;4.03;;;16.60;99.90;;;;;;4996291;28;20026;-88
2023/10/08 01:38:21;;;;;;;12.63;3.75;;;16.60;99.90;;;;;;4990613;28;20026;-89
2023/10/08 01:40:50;;;;;;;14.10;4.53;;;16.60;99.90;;;;;;4996129;28;20056;-88
2023/10/08 01:43:17;;;;;;;14.30;4.38;;;16.60;99.90;;;;;;4995939;28;20030;-89
2023/10/08 01:45:43;;;;;;;21.58;4.30;;;16.60;99.90;;;;;;4995367;28;20022;-88
2023/10/08 01:48:09;;;;;;;19.30;4.65;;;16.60;99.90;;;;;;5010825;28;21205;-88
2023/10/08 01:50:36;;;;;;;14.52;3.95;;;16.50;99.90;;;;;;4991193;28;20057;-88
2023/10/08 01:53:02;;;;;;;11.38;4.60;;;16.50;99.90;;;;;;4991914;28;20030;-89
2023/10/08 01:55:29;;;;;;;16.05;4.32;;;16.50;99.90;;;;;;4982949;28;20022;-88
2023/10/08 01:57:56;;;;;;;16.15;4.53;;;16.50;99.90;;;;;;4995920;28;20524;-88
2023/10/08 02:00:22;;;;;;;12.32;3.50;;;16.50;99.90;;;;;;4994179;28;20018;-88
2023/10/08 02:02:51;;;;;;;18.63;4.95;;;16.50;99.90;;;;;;4985594;28;20037;-88
2023/10/08 02:05:18;;;;;;;14.95;4.53;;;16.50;99.90;;;;;;4994928;28;20025;-88
2023/10/08 02:07:45;;;;;;;21.60;4.60;;;16.50;99.90;;;;;;5010631;28;20014;-88
2023/10/08 02:10:11;;;;;;;19.02;4.95;;;16.50;99.90;;;;;;4996287;28;20026;-88
2023/10/08 02:12:38;;;;;;;21.27;4.93;;;16.50;99.90;;;;;;5011652;28;20081;-89
2023/10/08 02:15:04;;;;;;;14.18;4.10;;;16.50;99.90;;;;;;5004861;28;20030;-89
2023/10/08 02:17:29;;;;;;;14.98;4.38;;;16.50;99.90;;;;;;4993674;28;20584;-88
2023/10/08 02:19:55;;;;;;;19.02;5.30;;;16.50;99.90;;;;;;4997191;28;20025;-88
2023/10/08 02:22:20;;;;;;;19.80;4.68;;;16.50;99.90;;;;;;4992340;28;20084;-88
2023/10/08 02:24:48;;;;;;;14.68;3.80;;;16.50;99.90;;;;;;4992074;28;20045;-88
2023/10/08 02:27:15;;;;;;;18.65;4.55;;;16.50;99.90;;;;;;4983747;28;20019;-89
2023/10/08 02:29:41;;;;;;;15.20;4.47;;;16.50;99.90;;;;;;4991635;28;20042;-89
2023/10/08 02:32:07;;;;;;;16.60;4.07;;;16.50;99.90;;;;;;4989686;28;20125;-88
2023/10/08 02:34:33;;;;;;;18.60;4.78;;;16.50;99.90;;;;;;4986741;28;20129;-88
2023/10/08 02:36:59;;;;;;;19.73;5.65;;;16.50;99.90;;;;;;4994390;28;20042;-89
2023/10/08 02:39:29;;;;;;;17.77;4.03;;;16.50;99.90;;;;;;4994115;28;20092;-88
2023/10/08 02:41:58;;;;;;;18.67;5.30;;;16.50;99.90;;;;;;4991272;28;20032;-88
2023/10/08 02:44:24;;;;;;;19.60;4.20;;;16.50;99.90;;;;;;4993514;28;20030;-88
2023/10/08 02:46:50;;;;;;;19.35;4.78;;;16.40;99.90;;;;;;4995580;28;20088;-88
2023/10/08 02:49:22;;;;;;;15.85;4.82;;;16.40;99.90;;;;;;4987163;28;20395;-88
2023/10/08 02:51:52;;;;;;;15.65;5.07;;;16.40;99.90;;;;;;4991403;28;20549;-87
2023/10/08 02:54:18;;;;;;;17.25;4.93;;;16.40;99.90;;;;;;5008873;28;20038;-88
2023/10/08 02:56:52;;;;;;;18.52;4.50;;;16.40;99.90;;;;;;4994345;28;20148;-88
2023/10/08 02:59:23;;;;;;;18.48;5.40;;;16.40;99.90;;;;;;5009505;28;20022;-87
2023/10/08 03:01:55;;;;;;;12.25;4.70;;;16.40;99.90;;;;;;4992147;28;20280;-88
2023/10/08 03:04:22;;;;;;;15.05;4.50;;;16.30;99.90;;;;;;4995491;28;20026;-88
2023/10/08 03:06:54;;;;;;;15.02;4.90;;;16.30;99.90;;;;;;4995649;28;20091;-88
2023/10/08 03:09:23;;;;;;;16.88;4.85;;;16.30;99.90;;;;;;4990922;28;20030;-88
2023/10/08 03:11:50;;;;;;;18.02;5.07;;;16.30;99.90;;;;;;4990557;28;20037;-88
2023/10/08 03:14:21;;;;;;;15.10;4.07;;;16.20;99.90;;;;;;4992700;28;20399;-88
2023/10/08 03:16:51;;;;;;;16.80;5.07;;;16.20;99.90;;;;;;5010467;28;20529;-88
2023/10/08 03:19:20;;;;;;;15.20;5.13;;;16.20;99.90;;;;;;4992108;28;20037;-88
2023/10/08 03:21:57;;;;;;;18.77;5.18;;;16.20;99.90;;;;;;4995099;28;20026;-88
2023/10/08 03:24:29;;;;;;;18.98;4.60;;;16.20;99.90;;;;;;4994750;28;20120;-90
2023/10/08 03:27:20;;;;;;;15.75;4.35;;;16.20;99.90;;;;;;5010064;28;20032;-89
2023/10/08 03:29:46;;;;;;;14.82;4.38;;;16.10;99.90;;;;;;5012319;28;20133;-89
2023/10/08 03:32:16;;;;;;;11.88;5.07;;;16.10;99.90;;;;;;4991255;28;20498;-89
2023/10/08 03:34:49;;;;;;;20.70;5.47;;;16.10;99.90;;;;;;5009570;28;20029;-89
2023/10/08 03:37:20;;;;;;;15.25;5.05;;;16.10;99.90;;;;;;4986354;28;20215;-90
2023/10/08 03:40:21;;;;;;;16.02;4.57;;;16.00;99.90;;;;;;5008385;28;20079;-89
2023/10/08 03:42:49;;;;;;;22.55;4.50;;;16.00;99.90;;;;;;5009611;28;20030;-89
2023/10/08 03:45:22;;;;;;;15.63;4.93;;;16.00;99.90;;;;;;4988878;28;20030;-89
2023/10/08 03:48:03;;;;;;;12.25;4.43;;;16.00;99.90;;;;;;4995293;28;20045;-88
2023/10/08 03:50:40;;;;;;;15.73;5.22;;;16.00;99.90;;;;;;4994301;28;20126;-89
2023/10/08 03:53:11;;;;;;;14.75;4.30;;;16.00;99.90;;;;;;4994340;28;20200;-88
2023/10/08 03:55:40;;;;;;;20.17;4.70;;;16.00;99.90;;;;;;4992646;28;20119;-89
2023/10/08 03:58:10;;;;;;;18.95;5.18;;;16.00;99.90;;;;;;4990666;28;20042;-88
2023/10/08 04:00:41;;;;;;;18.77;5.10;;;15.90;99.90;;;;;;4981158;28;20026;-88
2023/10/08 04:03:11;;;;;;;17.60;5.60;;;15.90;99.90;;;;;;4986839;28;20108;-88
2023/10/08 04:08:46;;;;;;;16.98;5.20;;;15.90;99.90;;;;;;4975961;28;20044;-88
2023/10/08 04:13:55;;;;;;;13.00;4.93;;;15.90;99.90;;;;;;5007276;28;20045;-89
2023/10/08 04:16:20;;;;;;;15.95;5.20;;;15.90;99.90;;;;;;4992481;28;20034;-89
2023/10/08 04:18:50;;;;;;;17.60;5.53;;;15.90;99.90;;;;;;4992801;28;20025;-88
2023/10/08 04:21:20;;;;;;;10.75;4.47;;;15.90;99.90;;;;;;4988482;28;20022;-87
2023/10/08 04:23:46;;;;;;;16.42;5.18;;;15.90;99.90;;;;;;4991871;28;20022;-89
2023/10/08 04:26:12;;;;;;;12.85;5.47;;;15.90;99.90;;;;;;4993387;28;20599;-89
2023/10/08 04:28:38;;;;;;;14.23;5.93;;;15.90;99.90;;;;;;4990467;28;20022;-89
2023/10/08 04:31:14;;;;;;;17.60;5.95;;;15.90;99.90;;;;;;4989304;28;20050;-89
2023/10/08 04:33:41;;;;;;;14.10;5.88;;;15.90;99.90;;;;;;4990500;28;20038;-88
2023/10/08 04:36:07;;;;;;;16.15;5.55;;;15.90;99.90;;;;;;4992355;28;20056;-88
2023/10/08 04:38:39;;;;;;;16.92;6.82;;;15.90;99.90;;;;;;4990217;28;20486;-88
2023/10/08 04:41:09;;;;;;;17.23;6.10;;;15.90;99.90;;;;;;4988656;28;20022;-89
2023/10/08 04:43:37;;;;;;;16.13;6.40;;;15.90;99.90;;;;;;4986579;28;20073;-89
2023/10/08 04:46:20;;;;;;;19.85;6.05;;;15.90;99.90;;;;;;5009519;28;20417;-88
2023/10/08 04:48:46;;;;;;;20.83;5.90;;;15.90;99.90;;;;;;4993626;28;20025;-89
2023/10/08 04:51:14;;;;;;;17.48;6.20;;;15.90;99.90;;;;;;5008218;28;20029;-89
2023/10/08 04:53:44;;;;;;;21.95;6.90;;;15.90;99.90;;;;;;4991200;28;20034;-89
2023/10/08 04:56:16;;;;;;;21.73;6.35;;;15.80;99.90;;;;;;5008398;28;20045;-89
2023/10/08 04:58:46;;;;;;;18.98;6.13;;;15.80;99.90;;;;;;4985612;28;20117;-89
2023/10/08 05:01:29;;;;;;;19.52;6.18;;;15.80;99.90;;;;;;5003484;28;20025;-89
2023/10/08 05:17:03;;;;;;;20.05;6.78;;;15.70;99.90;;;;;;5008608;28;20041;-89
2023/10/08 05:19:50;;;;;;;16.65;6.25;;;15.60;99.90;;;;;;4992479;28;20026;-89
2023/10/08 05:35:38;;;;;;;22.92;7.05;;;15.60;99.90;;;;;;5009900;28;20030;-88
2023/10/08 05:38:21;;;;;;;13.40;6.20;;;15.60;99.90;;;;;;4983238;28;20060;-87
2023/10/08 05:43:37;;;;;;;19.13;6.72;;;15.60;99.90;;;;;;5005139;28;20026;-87
2023/10/08 05:49:01;;;;;;;29.42;8.73;;;15.70;99.90;;;;;;5009204;28;20132;-87
2023/10/08 05:59:39;;;;;;;18.45;6.75;;;15.60;99.90;;;;;;5009760;28;20018;-87
2023/10/08 06:02:27;;;;;;;13.90;6.75;;;15.60;99.90;;;;;;4997653;28;20034;-88
2023/10/08 06:05:19;;;;;;;18.50;7.03;;;15.50;99.90;;;;;;4997327;28;20385;-91
2023/10/08 06:10:42;;;;;;;14.93;6.40;;;15.60;99.90;;;;;;5000913;28;20045;-88
2023/10/08 06:18:26;;;;;;;16.65;6.65;;;15.60;99.90;;;;;;5013311;28;20037;-89
2023/10/08 06:20:55;;;;;;;21.73;7.70;;;15.60;99.90;;;;;;4988938;28;20386;-88
2023/10/08 06:23:23;;;;;;;21.33;7.95;;;15.60;99.90;;;;;;4986981;28;20030;-88
2023/10/08 06:26:05;;;;;;;20.58;7.65;;;15.70;99.90;;;;;;4985027;28;20029;-89
2023/10/08 06:28:34;;;;;;;20.33;6.97;;;15.70;99.90;;;;;;4993962;28;20065;-90
2023/10/08 06:31:03;;;;;;;26.55;10.18;;;15.70;99.90;;;;;;5006154;28;20038;-89
2023/10/08 06:33:33;;;;;;;22.58;7.05;;;15.70;99.90;;;;;;5005039;28;20080;-89
2023/10/08 06:36:02;;;;;;;17.70;6.88;;;15.70;99.90;;;;;;4998813;28;20038;-86
2023/10/08 06:38:38;;;;;;;18.20;6.13;;;15.60;99.90;;;;;;4992873;28;20473;-86
2023/10/08 06:41:08;;;;;;;27.80;8.75;;;15.60;99.90;;;;;;4990434;28;20026;-84
2023/10/08 06:43:36;;;;;;;23.63;7.13;;;15.50;99.90;;;;;;4988026;28;20060;-86
2023/10/08 06:46:03;;;;;;;26.02;8.32;;;15.40;99.90;;;;;;4989904;28;20026;-85
2023/10/08 06:48:29;;;;;;;28.23;8.75;;;15.30;99.90;;;;;;4993946;28;20521;-88
2023/10/08 06:50:56;;;;;;;22.10;7.30;;;15.20;99.90;;;;;;4991476;28;20018;-89
2023/10/08 06:53:22;;;;;;;24.42;7.90;;;15.10;99.90;;;;;;4984064;28;20038;-89
2023/10/08 06:55:56;;;;;;;24.15;7.95;;;15.00;99.90;;;;;;4988921;28;20023;-88
2023/10/08 06:58:24;;;;;;;18.15;6.97;;;14.90;99.90;;;;;;4982899;28;20041;-87
2023/10/08 07:00:51;;;;;;;20.08;6.07;;;14.80;99.90;;;;;;5004437;28;20032;-89
2023/10/08 07:03:17;;;;;;;18.20;6.20;;;14.80;99.90;;;;;;4996354;28;20072;-87
2023/10/08 07:06:00;;;;;;;21.27;7.40;;;14.70;99.90;;;;;;4996967;28;20026;-88
2023/10/08 07:08:31;;;;;;;21.88;5.13;;;14.70;99.90;;;;;;4983029;28;20022;-88
2023/10/08 07:10:58;;;;;;;16.70;5.32;;;14.70;99.90;;;;;;4993659;28;20249;-88
2023/10/08 07:13:24;;;;;;;18.00;5.05;;;14.80;99.90;;;;;;4978252;28;20058;-88
2023/10/08 07:15:50;;;;;;;12.30;4.50;;;14.80;99.90;;;;;;4990545;28;20100;-89
2023/10/08 07:18:24;;;;;;;14.82;4.07;;;14.70;99.90;;;;;;4993143;28;20033;-87
2023/10/08 07:20:53;;;;;;;23.17;4.45;;;14.80;99.90;;;;;;4996390;28;20029;-88
2023/10/08 07:23:26;;;;;;;21.55;5.30;;;14.80;99.90;;;;;;4995648;28;20037;-89
2023/10/08 07:25:53;;;;;;;11.13;3.60;;;14.80;99.90;;;;;;4992072;28;20042;-89
2023/10/08 07:28:19;;;;;;;14.25;3.25;;;14.80;99.90;;;;;;4989318;28;20030;-89
2023/10/08 07:30:46;;;;;;;10.45;3.50;;;14.80;99.90;;;;;;4992697;28;20038;-88
2023/10/08 07:33:17;;;;;;;10.75;2.40;;;14.80;99.90;;;;;;4991475;28;20026;-89
2023/10/08 07:36:11;;;;;;;10.90;2.85;;;14.80;99.90;;;;;;4991423;28;20025;-88
2023/10/08 07:38:46;;;;;;;11.35;2.92;;;14.80;99.90;;;;;;4994192;28;20393;-89
2023/10/08 07:41:14;;;;;;;8.90;2.75;;;14.80;99.90;;;;;;4997224;28;20351;-89
2023/10/08 07:43:41;;;;;;;13.23;2.92;;;14.80;99.90;;;;;;5001761;28;20371;-88
2023/10/08 07:46:07;;;;;;;9.35;2.70;;;14.90;99.90;;;;;;4992556;28;20034;-89
2023/10/08 07:48:33;;;;;;;8.82;2.85;;;14.90;99.90;;;;;;5005805;28;20228;-88
2023/10/08 07:50:58;;;;;;;10.18;2.58;;;14.90;99.90;;;;;;5007330;28;20036;-88
2023/10/08 07:53:25;;;;;;;10.90;2.72;;;15.00;99.90;;;;;;5001148;28;20494;-89
2023/10/08 07:55:51;;;;;;;12.85;4.93;;;15.00;99.90;;;;;;4991745;28;20025;-88
2023/10/08 07:58:18;;;;;;;11.40;3.15;;;15.10;99.90;;;;;;4989098;28;20442;-88
2023/10/08 08:00:53;;;;;;;10.93;3.40;;;15.20;99.90;;;;;;4981255;28;20034;-88
2023/10/08 08:03:20;;;;;;;8.27;2.80;;;15.20;99.90;;;;;;4985164;28;20035;-89
2023/10/08 08:05:46;;;;;;;12.48;3.47;;;15.30;99.90;;;;;;4987842;28;20030;-87
2023/10/08 08:08:17;;;;;;;11.93;3.30;;;15.30;99.90;;;;;;5004178;28;20030;-90
2023/10/08 08:10:45;;;;;;;13.70;2.90;;;15.30;99.90;;;;;;4994074;28;20022;-88
2023/10/08 08:13:11;;;;;;;9.40;3.13;;;15.40;99.90;;;;;;5004674;28;20029;-88
2023/10/08 08:15:43;;;;;;;13.10;3.33;;;15.50;99.90;;;;;;5000770;28;20471;-87
2023/10/08 08:18:16;;;;;;;9.83;2.93;;;15.50;99.90;;;;;;4976939;28;20045;-87
2023/10/08 08:20:44;;;;;;;13.20;4.15;;;15.50;99.90;;;;;;4987753;28;20064;-87
2023/10/08 08:23:09;;;;;;;11.13;3.90;;;15.50;99.90;;;;;;4992172;28;20030;-87
2023/10/08 08:25:45;;;;;;;9.95;3.83;;;15.40;99.90;;;;;;4991865;28;20026;-87
2023/10/08 08:28:17;;;;;;;9.55;4.25;;;15.40;99.90;;;;;;4994639;28;20041;-87
2023/10/08 08:30:46;;;;;;;8.60;4.60;;;15.30;99.90;;;;;;5004282;28;20053;-87
2023/10/08 08:33:13;;;;;;;11.20;4.93;;;15.30;99.90;;;;;;5014538;28;20030;-87
2023/10/08 08:35:39;;;;;;;13.68;6.05;;;15.20;99.90;;;;;;5009834;28;20103;-87
2023/10/08 08:38:05;;;;;;;14.00;6.32;;;15.20;99.90;;;;;;4991592;28;20149;-87
2023/10/08 08:40:32;;;;;;;11.73;5.75;;;15.30;99.90;;;;;;4992859;28;20037;-87
2023/10/08 08:43:02;;;;;;;11.07;5.32;;;15.30;99.90;;;;;;5018959;28;20026;-87
2023/10/08 08:45:31;;;;;;;12.88;5.63;;;15.30;99.90;;;;;;4993837;28;20026;-87
2023/10/08 08:47:57;;;;;;;11.35;5.20;;;15.40;99.90;;;;;;4995841;28;20113;-86
2023/10/08 08:50:23;;;;;;;9.32;3.63;;;15.40;99.90;;;;;;4991315;28;20057;-87
2023/10/08 08:52:49;;;;;;;6.57;2.88;;;15.50;99.90;;;;;;4991686;28;20076;-87
2023/10/08 08:55:16;;;;;;;8.18;2.58;;;15.50;99.90;;;;;;4991386;28;20487;-87
2023/10/08 08:57:43;;;;;;;5.28;2.60;;;15.50;99.90;;;;;;4995437;28;20033;-86
2023/10/08 09:00:11;;;;;;;7.18;2.05;;;15.50;99.90;;;;;;4991727;28;20064;-88
2023/10/08 09:02:41;;;;;;;6.32;1.38;;;15.60;99.90;;;;;;4988926;28;20084;-87
2023/10/08 09:05:13;;;;;;;6.40;2.03;;;15.60;99.90;;;;;;4987424;28;20088;-88
2023/10/08 09:08:11;;;;;;;;;;;15.60;99.90;;;;;;4989287;28;20029;-87
2023/10/08 09:10:50;;;;;;;6.13;1.90;;;15.50;99.90;;;;;;4971886;28;19948;-87
2023/10/08 09:13:20;;;;;;;7.47;2.65;;;15.50;99.90;;;;;;4995612;28;20034;-87
2023/10/08 09:15:46;;;;;;;6.22;3.05;;;15.50;99.90;;;;;;4985967;28;20026;-88
2023/10/08 09:18:14;;;;;;;7.68;3.10;;;15.50;99.90;;;;;;4997521;28;20481;-87
2023/10/08 09:20:43;;;;;;;8.23;2.92;;;15.50;99.90;;;;;;4996057;28;20079;-87
2023/10/08 09:23:13;;;;;;;7.07;2.97;;;15.50;99.90;;;;;;4998887;28;20030;-87
2023/10/08 09:25:44;;;;;;;9.93;2.55;;;15.40;99.90;;;;;;4999070;28;20026;-89
2023/10/08 09:28:12;;;;;;;6.75;2.47;;;15.40;99.90;;;;;;4998482;28;20017;-88
2023/10/08 09:30:39;;;;;;;5.90;1.90;;;15.40;99.90;;;;;;4994390;28;20494;-88
2023/10/08 09:33:10;;;;;;;6.90;1.38;;;15.30;99.90;;;;;;4990024;28;20030;-87
2023/10/08 09:35:36;;;;;;;6.63;1.45;;;15.40;99.90;;;;;;5020244;28;20146;-87
2023/10/08 09:38:11;;;;;;;4.03;0.80;;;15.40;99.90;;;;;;4981373;28;20037;-87
2023/10/08 09:40:41;;;;;;;7.13;0.80;;;15.50;99.90;;;;;;4991503;28;20034;-87
2023/10/08 09:43:09;;;;;;;4.43;0.68;;;15.60;99.90;;;;;;4995499;28;20390;-88
2023/10/08 09:45:36;;;;;;;4.32;0.70;;;15.70;99.90;;;;;;4999623;28;20176;-87
2023/10/08 09:48:02;;;;;;;2.53;0.50;;;15.90;99.90;;;;;;4999654;28;20036;-88
2023/10/08 09:50:30;;;;;;;2.95;0.60;;;16.10;99.90;;;;;;5017942;28;20041;-87
2023/10/08 09:53:06;;;;;;;4.75;0.60;;;16.20;99.90;;;;;;5014837;28;20496;-88
2023/10/08 09:55:31;;;;;;;5.85;0.68;;;16.30;99.90;;;;;;4994958;28;20084;-88
2023/10/08 09:57:57;;;;;;;5.90;0.88;;;16.30;99.90;;;;;;5014977;28;20045;-88
2023/10/08 10:00:31;;;;;;;3.72;0.60;;;16.40;99.90;;;;;;4997875;28;20025;-87
2023/10/08 10:03:01;;;;;;;9.18;1.23;;;16.40;99.90;;;;;;4999469;28;20030;-88
2023/10/08 10:05:30;;;;;;;3.55;0.75;;;16.50;99.90;;;;;;4998392;28;20490;-87
2023/10/08 10:07:56;;;;;;;4.05;0.65;;;16.60;99.90;;;;;;4999096;28;20116;-88
2023/10/08 10:10:38;;;;;;;4.13;0.60;;;16.70;99.90;;;;;;5014191;28;20120;-87
2023/10/08 10:13:05;;;;;;;5.18;0.60;;;16.70;99.90;;;;;;4997979;28;20061;-87
2023/10/08 10:15:34;;;;;;;4.28;0.50;;;16.70;99.90;;;;;;4991443;28;20030;-88
2023/10/08 10:18:16;;;;;;;4.90;1.00;;;16.70;99.90;;;;;;4987597;28;20042;-87
2023/10/08 10:20:46;;;;;;;4.72;1.50;;;16.80;99.90;;;;;;4983199;28;20041;-86
2023/10/08 10:23:39;;;;;;;5.35;0.88;;;16.80;99.90;;;;;;4993242;28;20041;-88
2023/10/08 10:26:26;;;;;;;5.13;1.00;;;16.70;99.90;;;;;;4974247;28;20482;-88
2023/10/08 10:29:10;;;;;;;3.28;0.65;;;16.70;99.90;;;;;;4984118;28;20144;-88
2023/10/08 10:31:52;;;;;;;7.10;0.80;;;16.80;99.90;;;;;;4997881;28;20046;-88
2023/10/08 10:34:27;;;;;;;5.65;0.70;;;16.80;99.90;;;;;;5016526;28;20451;-87
2023/10/08 10:39:42;;;;;;;4.38;0.52;;;16.80;99.90;;;;;;5014904;28;20036;-88
2023/10/08 10:42:20;;;;;;;2.58;0.60;;;16.80;99.90;;;;;;5016535;28;20478;-83
2023/10/08 10:44:49;;;;;;;3.00;0.50;;;16.90;99.90;;;;;;4999231;28;20037;-88
2023/10/08 10:49:53;;;;;;;7.32;1.35;;;17.10;99.90;;;;;;5006507;28;20030;-89
2023/10/08 10:52:32;;;;;;;2.85;0.50;;;17.20;99.90;;;;;;4994461;28;20034;-89
2023/10/08 10:55:21;;;;;;;2.10;0.85;;;17.20;99.90;;;;;;4992711;28;20061;-89
2023/10/08 10:57:56;;;;;;;4.63;0.70;;;17.30;99.90;;;;;;4991253;28;20034;-89
2023/10/08 11:03:15;;;;;;;2.90;0.70;;;17.10;99.90;;;;;;5008852;28;20034;-89
2023/10/08 11:05:47;;;;;;;2.65;0.50;;;17.10;99.90;;;;;;5012019;28;20018;-90
2023/10/08 11:08:14;;;;;;;5.07;1.00;;;17.20;99.90;;;;;;4995907;28;20025;-88
2023/10/08 11:10:47;;;;;;;3.90;0.70;;;17.40;99.90;;;;;;4999262;28;20038;-90
2023/10/08 11:13:15;;;;;;;3.78;0.50;;;17.40;99.90;;;;;;5014983;28;20026;-89
2023/10/08 11:15:43;;;;;;;4.60;0.70;;;17.50;99.90;;;;;;4994824;28;20029;-89
2023/10/08 11:18:22;;;;;;;3.20;0.57;;;17.50;99.90;;;;;;4996716;28;20133;-89
2023/10/08 11:20:54;;;;;;;6.72;0.80;;;17.40;99.90;;;;;;4992929;28;20157;-88
2023/10/08 11:23:37;;;;;;;3.75;0.80;;;17.40;99.90;;;;;;4998914;28;20038;-88
2023/10/08 11:26:06;;;;;;;2.38;0.77;;;17.40;99.90;;;;;;4998429;28;20371;-88
2023/10/08 11:28:35;;;;;;;3.47;0.70;;;17.50;99.90;;;;;;5005491;28;20030;-88
2023/10/08 11:31:08;;;;;;;2.45;1.00;;;17.60;99.90;;;;;;4980030;28;20078;-88
2023/10/08 11:33:40;;;;;;;2.05;0.77;;;17.70;99.90;;;;;;5015555;28;20032;-87
2023/10/08 11:36:18;;;;;;;2.30;0.60;;;17.80;99.90;;;;;;4996711;28;20609;-87
2023/10/08 11:38:47;;;;;;;3.88;1.08;;;17.80;99.90;;;;;;4983039;28;20030;-87
2023/10/08 11:41:21;;;;;;;3.80;0.70;;;17.80;99.90;;;;;;4996304;28;20022;-87
2023/10/08 11:43:48;;;;;;;2.65;0.88;;;17.90;99.90;;;;;;4997531;28;20026;-88
2023/10/08 11:46:17;;;;;;;3.42;0.70;;;18.00;99.90;;;;;;5008242;28;20026;-88
2023/10/08 11:48:46;;;;;;;3.75;0.70;;;18.00;99.90;;;;;;4986483;28;20049;-88
2023/10/08 11:51:13;;;;;;;3.03;0.80;;;17.90;99.90;;;;;;4988232;28;20022;-88
2023/10/08 11:53:38;;;;;;;6.63;0.68;;;18.00;99.90;;;;;;4995527;28;20096;-88
2023/10/08 11:56:12;;;;;;;4.45;0.80;;;17.90;99.90;;;;;;4993913;28;20474;-87
2023/10/08 11:58:44;;;;;;;6.25;0.70;;;18.00;99.90;;;;;;4995352;28;20044;-87
2023/10/08 12:01:15;;;;;;;4.80;0.70;;;18.00;99.90;;;;;;5011235;28;20064;-86
2023/10/08 12:03:43;;;;;;;2.88;0.80;;;18.00;99.90;;;;;;4997008;28;20042;-87
2023/10/08 12:06:11;;;;;;;3.72;1.02;;;18.00;99.90;;;;;;4997297;28;20490;-87
2023/10/08 12:08:39;;;;;;;2.08;0.82;;;17.90;99.90;;;;;;4994892;28;20050;-89
2023/10/08 12:11:11;;;;;;;3.60;0.70;;;18.00;99.90;;;;;;4997800;28;20106;-88
2023/10/08 12:13:37;;;;;;;;;;;18.00;99.90;;;;;;4994669;28;20124;-87
2023/10/08 12:16:06;;;;;;;5.05;0.70;;;18.00;99.90;;;;;;4988717;28;19964;-87
2023/10/08 12:18:39;;;;;;;1.50;0.52;;;18.10;99.90;;;;;;4992322;28;20041;-87
2023/10/08 12:21:05;;;;;;;2.35;0.57;;;18.10;99.90;;;;;;4992060;28;20029;-88
2023/10/08 12:23:33;;;;;;;5.63;0.93;;;18.10;99.90;;;;;;4991349;28;20021;-86
2023/10/08 12:25:59;;;;;;;3.38;0.75;;;18.10;99.90;;;;;;4989697;28;20109;-87
2023/10/08 12:28:27;;;;;;;2.58;0.90;;;18.00;99.90;;;;;;4986071;28;20025;-89
2023/10/08 12:30:53;;;;;;;4.78;1.10;;;18.10;99.90;;;;;;5012005;28;20073;-87
2023/10/08 12:33:19;;;;;;;2.70;0.80;;;18.20;99.90;;;;;;5009680;28;20030;-89
2023/10/08 12:35:47;;;;;;;3.45;1.00;;;18.40;99.90;;;;;;4996522;28;20371;-89
2023/10/08 12:38:14;;;;;;;2.95;0.90;;;18.60;99.90;;;;;;5012778;28;20132;-89
2023/10/08 12:40:47;;;;;;;2.70;0.88;;;18.90;99.90;;;;;;4996470;28;20022;-88
2023/10/08 12:43:18;;;;;;;3.20;0.90;;;18.90;99.90;;;;;;4999368;28;20018;-87
2023/10/08 12:45:54;;;;;;;1.98;0.82;;;18.90;99.90;;;;;;4991760;28;20044;-89
2023/10/08 12:48:27;;;;;;;3.33;1.08;;;18.90;99.90;;;;;;4995011;28;20038;-89
2023/10/08 12:51:00;;;;;;;3.60;1.00;;;19.00;99.90;;;;;;4994009;28;20034;-88
2023/10/08 12:53:33;;;;;;;3.90;1.00;;;19.10;99.90;;;;;;4989596;28;20113;-88
2023/10/08 12:56:05;;;;;;;2.55;1.05;;;19.30;99.90;;;;;;4997425;28;20235;-88
2023/10/08 12:58:34;;;;;;;5.13;1.17;;;19.50;99.90;;;;;;5000165;28;20039;-90
2023/10/08 13:01:03;;;;;;;2.78;0.88;;;19.60;99.90;;;;;;4998399;28;20030;-89
2023/10/08 13:03:32;;;;;;;3.90;1.30;;;19.50;99.90;;;;;;4997418;28;20035;-89
2023/10/08 13:06:03;;;;;;;2.58;1.17;;;19.50;99.90;;;;;;4992682;28;20018;-89
2023/10/08 13:08:33;;;;;;;4.25;1.20;;;19.40;99.90;;;;;;4992936;28;20034;-89
2023/10/08 13:11:03;;;;;;;3.30;1.20;;;19.30;99.90;;;;;;4992379;28;20466;-89
2023/10/08 13:13:33;;;;;;;1.98;0.93;;;19.20;99.90;;;;;;4994360;28;20036;-88
2023/10/08 13:16:02;;;;;;;5.70;1.55;;;19.10;99.90;;;;;;4992835;28;20048;-88
2023/10/08 13:18:29;;;;;;;3.75;1.65;;;19.10;99.90;;;;;;5006503;28;20026;-87
2023/10/08 13:20:55;;;;;;;4.60;1.40;;;19.00;99.90;;;;;;4990631;28;20026;-88
2023/10/08 13:23:23;;;;;;;5.75;1.83;;;19.00;99.90;;;;;;4992574;28;20536;-88
2023/10/08 13:25:53;;;;;;;5.43;1.83;;;19.00;99.90;;;;;;4988221;28;20074;-88
2023/10/08 13:28:20;;;;;;;3.83;1.60;;;19.10;99.90;;;;;;4994527;28;20045;-88
2023/10/08 13:30:46;;;;;;;5.15;2.15;;;19.10;99.90;;;;;;4994621;28;20053;-88
2023/10/08 13:33:12;;;;;;;4.65;1.50;;;19.10;99.90;;;;;;4991249;28;20031;-88
2023/10/08 13:35:38;;;;;;;3.70;1.58;;;19.10;99.90;;;;;;4976628;28;20025;-88
2023/10/08 13:38:09;;;;;;;6.25;1.98;;;19.10;99.90;;;;;;4989843;28;20034;-87
2023/10/08 13:40:39;;;;;;;3.67;1.95;;;19.10;99.90;;;;;;4991221;28;20022;-88
2023/10/08 13:43:05;;;;;;;6.38;1.95;;;19.10;99.90;;;;;;5008628;28;20022;-87
2023/10/08 13:45:33;;;;;;;3.97;1.95;;;19.10;99.90;;;;;;4988575;28;20061;-88
2023/10/08 13:48:01;;;;;;;5.25;2.42;;;19.10;99.90;;;;;;4994506;28;20026;-87
2023/10/08 13:50:30;;;;;;;5.47;2.13;;;19.20;99.90;;;;;;4982599;28;20026;-87
2023/10/08 13:52:55;;;;;;;5.07;1.92;;;19.20;99.90;;;;;;4984142;28;20018;-88
2023/10/08 13:55:25;;;;;;;4.60;2.63;;;19.10;99.90;;;;;;4997399;28;20025;-88
2023/10/08 13:57:54;;;;;;;9.10;2.53;;;19.10;99.90;;;;;;4994938;28;20114;-88
2023/10/08 14:00:25;;;;;;;5.97;2.53;;;18.90;99.90;;;;;;4996188;28;20030;-88
2023/10/08 14:02:52;;;;;;;5.72;1.90;;;18.90;99.90;;;;;;4995660;28;20462;-89